sensor_id;sensor_type;location;lat;lon;timestamp;P1;durP1;ratioP1;P2;durP2;ratioP2
8777;SDS011;4425;50.872;4.712;2023-01-09T00:00:27;8.20;;;4.50;;
8777;SDS011;4425;50.872;4.712;2023-01-09T00:02:54;8.20;;;4.80;;
8777;SDS011;4425;50.872;4.712;2023-01-09T00:05:21;8.17;;;4.90;;
8777;SDS011;4425;50.872;4.712;2023-01-09T00:07:49;9.43;;;4.80;;
8777;SDS011;4425;50.872;4.712;2023-01-09T00:10:17;10.30;;;5.40;;
8777;SDS011;4425;50.872;4.712;2023-01-09T00:12:46;8.63;;;4.50;;
8777;SDS011;4425;50.872;4.712;2023-01-09T00:15:13;7.80;;;3.90;;
8777;SDS011;4425;50.872;4.712;2023-01-09T00:17:40;4.50;;;3.43;;
8777;SDS011;4425;50.872;4.712;2023-01-09T00:20:08;5.30;;;3.13;;
8777;SDS011;4425;50.872;4.712;2023-01-09T00:22:36;3.07;;;2.37;;
8777;SDS011;4425;50.872;4.712;2023-01-09T00:25:04;4.20;;;2.50;;
8777;SDS011;4425;50.872;4.712;2023-01-09T00:27:33;2.73;;;2.47;;
8777;SDS011;4425;50.872;4.712;2023-01-09T00:30:01;3.70;;;2.10;;
8777;SDS011;4425;50.872;4.712;2023-01-09T00:32:28;4.13;;;2.50;;
8777;SDS011;4425;50.872;4.712;2023-01-09T00:34:55;3.33;;;2.20;;
8777;SDS011;4425;50.872;4.712;2023-01-09T00:37:22;4.03;;;2.30;;
8777;SDS011;4425;50.872;4.712;2023-01-09T00:39:49;2.17;;;2.00;;
8777;SDS011;4425;50.872;4.712;2023-01-09T00:42:17;1.93;;;1.70;;
8777;SDS011;4425;50.872;4.712;2023-01-09T00:44:48;2.53;;;1.97;;
8777;SDS011;4425;50.872;4.712;2023-01-09T00:47:20;1.80;;;1.70;;
8777;SDS011;4425;50.872;4.712;2023-01-09T00:49:50;3.03;;;1.93;;
8777;SDS011;4425;50.872;4.712;2023-01-09T00:52:18;3.13;;;2.10;;
8777;SDS011;4425;50.872;4.712;2023-01-09T00:54:47;4.03;;;2.10;;
8777;SDS011;4425;50.872;4.712;2023-01-09T00:57:15;4.17;;;2.20;;
8777;SDS011;4425;50.872;4.712;2023-01-09T00:59:42;2.70;;;2.10;;
8777;SDS011;4425;50.872;4.712;2023-01-09T01:02:11;2.90;;;1.90;;
8777;SDS011;4425;50.872;4.712;2023-01-09T01:04:38;2.87;;;2.17;;
8777;SDS011;4425;50.872;4.712;2023-01-09T01:07:23;3.57;;;2.30;;
8777;SDS011;4425;50.872;4.712;2023-01-09T01:10:07;3.53;;;2.47;;
8777;SDS011;4425;50.872;4.712;2023-01-09T01:12:36;2.60;;;2.20;;
8777;SDS011;4425;50.872;4.712;2023-01-09T01:15:04;5.37;;;2.30;;
8777;SDS011;4425;50.872;4.712;2023-01-09T01:17:34;2.23;;;2.10;;
8777;SDS011;4425;50.872;4.712;2023-01-09T01:20:02;2.60;;;2.20;;
8777;SDS011;4425;50.872;4.712;2023-01-09T01:22:30;2.53;;;2.17;;
8777;SDS011;4425;50.872;4.712;2023-01-09T01:24:58;4.20;;;2.23;;
8777;SDS011;4425;50.872;4.712;2023-01-09T01:27:26;3.03;;;2.20;;
8777;SDS011;4425;50.872;4.712;2023-01-09T01:29:53;4.53;;;1.90;;
8777;SDS011;4425;50.872;4.712;2023-01-09T01:32:20;4.73;;;2.17;;
8777;SDS011;4425;50.872;4.712;2023-01-09T01:34:49;4.47;;;2.10;;
8777;SDS011;4425;50.872;4.712;2023-01-09T01:37:16;2.53;;;2.07;;
8777;SDS011;4425;50.872;4.712;2023-01-09T01:39:43;3.63;;;2.07;;
8777;SDS011;4425;50.872;4.712;2023-01-09T01:42:10;6.23;;;2.10;;
8777;SDS011;4425;50.872;4.712;2023-01-09T01:44:58;2.30;;;1.83;;
8777;SDS011;4425;50.872;4.712;2023-01-09T01:47:29;4.53;;;2.03;;
8777;SDS011;4425;50.872;4.712;2023-01-09T01:50:03;6.33;;;2.03;;
8777;SDS011;4425;50.872;4.712;2023-01-09T01:52:32;3.17;;;1.77;;
8777;SDS011;4425;50.872;4.712;2023-01-09T01:55:01;3.73;;;1.70;;
8777;SDS011;4425;50.872;4.712;2023-01-09T01:57:29;5.00;;;2.30;;
8777;SDS011;4425;50.872;4.712;2023-01-09T01:59:57;6.47;;;2.13;;
8777;SDS011;4425;50.872;4.712;2023-01-09T02:02:26;2.40;;;1.80;;
8777;SDS011;4425;50.872;4.712;2023-01-09T02:04:59;3.70;;;1.80;;
8777;SDS011;4425;50.872;4.712;2023-01-09T02:07:30;8.17;;;1.93;;
8777;SDS011;4425;50.872;4.712;2023-01-09T02:09:57;7.60;;;1.80;;
8777;SDS011;4425;50.872;4.712;2023-01-09T02:12:25;4.10;;;1.83;;
8777;SDS011;4425;50.872;4.712;2023-01-09T02:14:55;3.90;;;1.80;;
8777;SDS011;4425;50.872;4.712;2023-01-09T02:17:39;6.30;;;2.10;;
8777;SDS011;4425;50.872;4.712;2023-01-09T02:20:37;3.43;;;1.50;;
8777;SDS011;4425;50.872;4.712;2023-01-09T02:26:11;7.30;;;1.70;;
8777;SDS011;4425;50.872;4.712;2023-01-09T02:29:06;3.70;;;2.03;;
8777;SDS011;4425;50.872;4.712;2023-01-09T02:32:04;5.87;;;2.33;;
8777;SDS011;4425;50.872;4.712;2023-01-09T02:34:38;4.83;;;1.80;;
8777;SDS011;4425;50.872;4.712;2023-01-09T02:37:13;6.70;;;1.80;;
8777;SDS011;4425;50.872;4.712;2023-01-09T02:39:49;6.50;;;1.87;;
8777;SDS011;4425;50.872;4.712;2023-01-09T02:42:21;4.67;;;1.97;;
8777;SDS011;4425;50.872;4.712;2023-01-09T02:44:50;10.03;;;2.00;;
8777;SDS011;4425;50.872;4.712;2023-01-09T02:47:39;5.77;;;1.60;;
8777;SDS011;4425;50.872;4.712;2023-01-09T02:50:09;2.00;;;1.57;;
8777;SDS011;4425;50.872;4.712;2023-01-09T02:58:40;4.70;;;1.83;;
8777;SDS011;4425;50.872;4.712;2023-01-09T03:01:22;5.10;;;1.80;;
8777;SDS011;4425;50.872;4.712;2023-01-09T03:03:56;5.20;;;1.87;;
8777;SDS011;4425;50.872;4.712;2023-01-09T03:06:29;3.53;;;1.70;;
8777;SDS011;4425;50.872;4.712;2023-01-09T03:09:02;4.97;;;1.67;;
8777;SDS011;4425;50.872;4.712;2023-01-09T03:11:32;5.10;;;1.50;;
8777;SDS011;4425;50.872;4.712;2023-01-09T03:14:06;3.33;;;1.60;;
8777;SDS011;4425;50.872;4.712;2023-01-09T03:16:37;5.13;;;1.60;;
8777;SDS011;4425;50.872;4.712;2023-01-09T03:19:06;4.13;;;2.00;;
8777;SDS011;4425;50.872;4.712;2023-01-09T03:21:36;5.97;;;1.83;;
8777;SDS011;4425;50.872;4.712;2023-01-09T03:24:05;7.13;;;2.00;;
8777;SDS011;4425;50.872;4.712;2023-01-09T03:26:32;3.73;;;1.83;;
8777;SDS011;4425;50.872;4.712;2023-01-09T03:28:59;4.13;;;1.50;;
8777;SDS011;4425;50.872;4.712;2023-01-09T03:31:26;5.07;;;1.83;;
8777;SDS011;4425;50.872;4.712;2023-01-09T03:33:53;4.63;;;1.60;;
8777;SDS011;4425;50.872;4.712;2023-01-09T03:36:22;4.20;;;1.70;;
8777;SDS011;4425;50.872;4.712;2023-01-09T03:38:50;6.17;;;1.67;;
8777;SDS011;4425;50.872;4.712;2023-01-09T03:41:17;10.20;;;2.53;;
8777;SDS011;4425;50.872;4.712;2023-01-09T03:43:44;4.70;;;1.90;;
8777;SDS011;4425;50.872;4.712;2023-01-09T03:46:12;4.27;;;1.63;;
8777;SDS011;4425;50.872;4.712;2023-01-09T03:48:40;4.53;;;1.73;;
8777;SDS011;4425;50.872;4.712;2023-01-09T03:51:07;8.63;;;1.90;;
8777;SDS011;4425;50.872;4.712;2023-01-09T03:53:36;5.67;;;1.90;;
8777;SDS011;4425;50.872;4.712;2023-01-09T03:56:03;5.50;;;1.77;;
8777;SDS011;4425;50.872;4.712;2023-01-09T03:58:30;6.67;;;1.90;;
8777;SDS011;4425;50.872;4.712;2023-01-09T04:00:57;8.57;;;2.20;;
8777;SDS011;4425;50.872;4.712;2023-01-09T04:03:26;8.23;;;2.00;;
8777;SDS011;4425;50.872;4.712;2023-01-09T04:05:53;2.00;;;1.73;;
8777;SDS011;4425;50.872;4.712;2023-01-09T04:08:20;4.67;;;1.97;;
8777;SDS011;4425;50.872;4.712;2023-01-09T04:10:49;6.50;;;2.10;;
8777;SDS011;4425;50.872;4.712;2023-01-09T04:13:16;6.33;;;1.93;;
8777;SDS011;4425;50.872;4.712;2023-01-09T04:15:44;5.93;;;2.23;;
8777;SDS011;4425;50.872;4.712;2023-01-09T04:18:11;4.80;;;1.97;;
8777;SDS011;4425;50.872;4.712;2023-01-09T04:20:38;5.97;;;2.00;;
8777;SDS011;4425;50.872;4.712;2023-01-09T04:23:05;5.67;;;2.00;;
8777;SDS011;4425;50.872;4.712;2023-01-09T04:25:32;7.00;;;2.33;;
8777;SDS011;4425;50.872;4.712;2023-01-09T04:28:01;7.87;;;2.30;;
8777;SDS011;4425;50.872;4.712;2023-01-09T04:30:28;5.20;;;2.00;;
8777;SDS011;4425;50.872;4.712;2023-01-09T04:32:55;4.07;;;1.93;;
8777;SDS011;4425;50.872;4.712;2023-01-09T04:35:22;10.60;;;2.43;;
8777;SDS011;4425;50.872;4.712;2023-01-09T04:37:49;5.77;;;2.43;;
8777;SDS011;4425;50.872;4.712;2023-01-09T04:40:16;7.90;;;2.50;;
8777;SDS011;4425;50.872;4.712;2023-01-09T04:42:43;6.40;;;2.60;;
8777;SDS011;4425;50.872;4.712;2023-01-09T04:45:12;8.83;;;2.60;;
8777;SDS011;4425;50.872;4.712;2023-01-09T04:47:41;7.13;;;3.40;;
8777;SDS011;4425;50.872;4.712;2023-01-09T04:50:09;8.93;;;2.60;;
8777;SDS011;4425;50.872;4.712;2023-01-09T04:52:37;6.53;;;2.23;;
8777;SDS011;4425;50.872;4.712;2023-01-09T04:55:05;8.17;;;2.50;;
8777;SDS011;4425;50.872;4.712;2023-01-09T04:57:33;8.93;;;2.47;;
8777;SDS011;4425;50.872;4.712;2023-01-09T05:00:00;6.93;;;2.13;;
8777;SDS011;4425;50.872;4.712;2023-01-09T05:02:28;6.73;;;2.30;;
8777;SDS011;4425;50.872;4.712;2023-01-09T05:04:55;8.27;;;2.30;;
8777;SDS011;4425;50.872;4.712;2023-01-09T05:07:22;5.53;;;2.13;;
8777;SDS011;4425;50.872;4.712;2023-01-09T05:09:49;7.43;;;2.50;;
8777;SDS011;4425;50.872;4.712;2023-01-09T05:12:16;7.37;;;2.50;;
8777;SDS011;4425;50.872;4.712;2023-01-09T05:14:43;9.17;;;2.50;;
8777;SDS011;4425;50.872;4.712;2023-01-09T05:17:10;7.93;;;2.50;;
8777;SDS011;4425;50.872;4.712;2023-01-09T05:19:39;8.10;;;2.80;;
8777;SDS011;4425;50.872;4.712;2023-01-09T05:22:06;11.80;;;2.60;;
8777;SDS011;4425;50.872;4.712;2023-01-09T05:24:33;7.93;;;2.40;;
8777;SDS011;4425;50.872;4.712;2023-01-09T05:27:00;8.77;;;2.53;;
8777;SDS011;4425;50.872;4.712;2023-01-09T05:29:27;6.90;;;2.53;;
8777;SDS011;4425;50.872;4.712;2023-01-09T05:31:55;7.27;;;2.60;;
8777;SDS011;4425;50.872;4.712;2023-01-09T05:34:23;8.03;;;2.00;;
8777;SDS011;4425;50.872;4.712;2023-01-09T05:36:51;4.87;;;2.40;;
8777;SDS011;4425;50.872;4.712;2023-01-09T05:39:18;7.80;;;2.43;;
8777;SDS011;4425;50.872;4.712;2023-01-09T05:41:46;7.60;;;2.23;;
8777;SDS011;4425;50.872;4.712;2023-01-09T05:44:13;10.37;;;2.07;;
8777;SDS011;4425;50.872;4.712;2023-01-09T05:46:40;8.03;;;2.40;;
8777;SDS011;4425;50.872;4.712;2023-01-09T05:49:06;10.70;;;2.20;;
8777;SDS011;4425;50.872;4.712;2023-01-09T05:51:35;7.30;;;2.43;;
8777;SDS011;4425;50.872;4.712;2023-01-09T05:54:03;6.87;;;2.63;;
8777;SDS011;4425;50.872;4.712;2023-01-09T05:56:31;7.13;;;2.43;;
8777;SDS011;4425;50.872;4.712;2023-01-09T05:58:58;7.50;;;2.10;;
8777;SDS011;4425;50.872;4.712;2023-01-09T06:01:25;6.17;;;2.10;;
8777;SDS011;4425;50.872;4.712;2023-01-09T06:03:52;6.90;;;2.30;;
8777;SDS011;4425;50.872;4.712;2023-01-09T06:06:19;5.33;;;2.00;;
8777;SDS011;4425;50.872;4.712;2023-01-09T06:08:48;8.87;;;2.50;;
8777;SDS011;4425;50.872;4.712;2023-01-09T06:11:17;6.40;;;2.30;;
8777;SDS011;4425;50.872;4.712;2023-01-09T06:13:44;8.40;;;2.20;;
8777;SDS011;4425;50.872;4.712;2023-01-09T06:16:11;6.70;;;2.33;;
8777;SDS011;4425;50.872;4.712;2023-01-09T06:18:39;5.73;;;2.10;;
8777;SDS011;4425;50.872;4.712;2023-01-09T06:21:06;6.70;;;2.60;;
8777;SDS011;4425;50.872;4.712;2023-01-09T06:23:33;5.20;;;2.10;;
8777;SDS011;4425;50.872;4.712;2023-01-09T06:26:00;6.07;;;2.03;;
8777;SDS011;4425;50.872;4.712;2023-01-09T06:28:28;5.53;;;2.30;;
8777;SDS011;4425;50.872;4.712;2023-01-09T06:30:55;6.77;;;2.60;;
8777;SDS011;4425;50.872;4.712;2023-01-09T06:33:22;10.13;;;2.20;;
8777;SDS011;4425;50.872;4.712;2023-01-09T06:35:49;7.00;;;2.10;;
8777;SDS011;4425;50.872;4.712;2023-01-09T06:38:16;7.73;;;2.10;;
8777;SDS011;4425;50.872;4.712;2023-01-09T06:40:45;5.77;;;2.30;;
8777;SDS011;4425;50.872;4.712;2023-01-09T06:43:13;6.50;;;2.20;;
8777;SDS011;4425;50.872;4.712;2023-01-09T06:45:42;4.90;;;1.90;;
8777;SDS011;4425;50.872;4.712;2023-01-09T06:48:09;5.93;;;1.90;;
8777;SDS011;4425;50.872;4.712;2023-01-09T06:50:37;7.97;;;2.20;;
8777;SDS011;4425;50.872;4.712;2023-01-09T06:53:04;11.10;;;2.40;;
8777;SDS011;4425;50.872;4.712;2023-01-09T06:55:32;3.63;;;1.90;;
8777;SDS011;4425;50.872;4.712;2023-01-09T06:58:00;7.80;;;2.17;;
8777;SDS011;4425;50.872;4.712;2023-01-09T07:00:27;4.70;;;1.77;;
8777;SDS011;4425;50.872;4.712;2023-01-09T07:02:57;3.93;;;1.80;;
8777;SDS011;4425;50.872;4.712;2023-01-09T07:05:24;2.70;;;1.70;;
8777;SDS011;4425;50.872;4.712;2023-01-09T07:07:51;6.50;;;2.10;;
8777;SDS011;4425;50.872;4.712;2023-01-09T07:10:18;5.80;;;1.93;;
8777;SDS011;4425;50.872;4.712;2023-01-09T07:12:45;3.67;;;1.80;;
8777;SDS011;4425;50.872;4.712;2023-01-09T07:15:11;4.70;;;1.93;;
8777;SDS011;4425;50.872;4.712;2023-01-09T07:17:38;6.13;;;2.40;;
8777;SDS011;4425;50.872;4.712;2023-01-09T07:20:08;9.37;;;2.23;;
8777;SDS011;4425;50.872;4.712;2023-01-09T07:22:36;4.63;;;1.93;;
8777;SDS011;4425;50.872;4.712;2023-01-09T07:25:03;4.73;;;1.90;;
8777;SDS011;4425;50.872;4.712;2023-01-09T07:27:31;4.60;;;1.77;;
8777;SDS011;4425;50.872;4.712;2023-01-09T07:29:58;7.37;;;1.60;;
8777;SDS011;4425;50.872;4.712;2023-01-09T07:32:25;4.10;;;1.70;;
8777;SDS011;4425;50.872;4.712;2023-01-09T07:34:53;6.37;;;1.93;;
8777;SDS011;4425;50.872;4.712;2023-01-09T07:37:21;3.97;;;1.67;;
8777;SDS011;4425;50.872;4.712;2023-01-09T07:39:48;5.30;;;1.77;;
8777;SDS011;4425;50.872;4.712;2023-01-09T07:42:16;4.00;;;1.63;;
8777;SDS011;4425;50.872;4.712;2023-01-09T07:44:43;3.43;;;1.70;;
8777;SDS011;4425;50.872;4.712;2023-01-09T07:47:10;3.63;;;1.77;;
8777;SDS011;4425;50.872;4.712;2023-01-09T07:49:38;6.47;;;2.07;;
8777;SDS011;4425;50.872;4.712;2023-01-09T07:52:05;5.20;;;1.73;;
8777;SDS011;4425;50.872;4.712;2023-01-09T07:54:34;4.80;;;1.60;;
8777;SDS011;4425;50.872;4.712;2023-01-09T07:57:01;3.50;;;1.90;;
8777;SDS011;4425;50.872;4.712;2023-01-09T07:59:28;4.67;;;1.70;;
8777;SDS011;4425;50.872;4.712;2023-01-09T08:01:55;6.33;;;1.80;;
8777;SDS011;4425;50.872;4.712;2023-01-09T08:04:24;4.10;;;1.60;;
8777;SDS011;4425;50.872;4.712;2023-01-09T08:06:53;3.30;;;1.73;;
8777;SDS011;4425;50.872;4.712;2023-01-09T08:09:22;5.40;;;1.80;;
8777;SDS011;4425;50.872;4.712;2023-01-09T08:11:51;4.03;;;1.93;;
8777;SDS011;4425;50.872;4.712;2023-01-09T08:16:52;5.47;;;1.90;;
8777;SDS011;4425;50.872;4.712;2023-01-09T08:19:19;6.03;;;2.07;;
8777;SDS011;4425;50.872;4.712;2023-01-09T08:21:49;7.43;;;3.33;;
8777;SDS011;4425;50.872;4.712;2023-01-09T08:24:16;3.40;;;2.03;;
8777;SDS011;4425;50.872;4.712;2023-01-09T08:26:43;6.00;;;2.20;;
8777;SDS011;4425;50.872;4.712;2023-01-09T08:29:12;5.70;;;2.10;;
8777;SDS011;4425;50.872;4.712;2023-01-09T08:31:43;7.50;;;2.17;;
8777;SDS011;4425;50.872;4.712;2023-01-09T08:34:15;6.20;;;2.30;;
8777;SDS011;4425;50.872;4.712;2023-01-09T08:36:42;6.23;;;2.00;;
8777;SDS011;4425;50.872;4.712;2023-01-09T08:39:12;5.83;;;2.10;;
8777;SDS011;4425;50.872;4.712;2023-01-09T08:41:43;4.87;;;2.00;;
8777;SDS011;4425;50.872;4.712;2023-01-09T08:44:30;6.27;;;2.03;;
8777;SDS011;4425;50.872;4.712;2023-01-09T08:47:14;7.50;;;2.23;;
8777;SDS011;4425;50.872;4.712;2023-01-09T08:49:43;4.50;;;2.33;;
8777;SDS011;4425;50.872;4.712;2023-01-09T08:52:12;2.70;;;1.70;;
8777;SDS011;4425;50.872;4.712;2023-01-09T08:54:39;4.40;;;2.00;;
8777;SDS011;4425;50.872;4.712;2023-01-09T08:57:08;6.73;;;1.70;;
8777;SDS011;4425;50.872;4.712;2023-01-09T09:02:12;3.10;;;1.73;;
8777;SDS011;4425;50.872;4.712;2023-01-09T09:04:42;2.77;;;1.60;;
8777;SDS011;4425;50.872;4.712;2023-01-09T09:07:10;6.80;;;1.60;;
8777;SDS011;4425;50.872;4.712;2023-01-09T09:09:37;3.43;;;1.70;;
8777;SDS011;4425;50.872;4.712;2023-01-09T09:12:05;3.60;;;1.37;;
8777;SDS011;4425;50.872;4.712;2023-01-09T09:14:34;3.27;;;1.43;;
8777;SDS011;4425;50.872;4.712;2023-01-09T09:17:21;3.70;;;1.23;;
8777;SDS011;4425;50.872;4.712;2023-01-09T09:19:50;2.47;;;1.10;;
8777;SDS011;4425;50.872;4.712;2023-01-09T09:22:22;1.10;;;1.03;;
8777;SDS011;4425;50.872;4.712;2023-01-09T09:24:51;1.30;;;1.20;;
8777;SDS011;4425;50.872;4.712;2023-01-09T09:27:19;1.50;;;1.20;;
8777;SDS011;4425;50.872;4.712;2023-01-09T09:29:49;1.00;;;0.90;;
8777;SDS011;4425;50.872;4.712;2023-01-09T09:35:04;2.63;;;1.30;;
8777;SDS011;4425;50.872;4.712;2023-01-09T09:37:34;2.13;;;1.00;;
8777;SDS011;4425;50.872;4.712;2023-01-09T09:40:02;0.90;;;0.90;;
8777;SDS011;4425;50.872;4.712;2023-01-09T09:42:38;3.30;;;1.27;;
8777;SDS011;4425;50.872;4.712;2023-01-09T09:45:52;1.43;;;1.20;;
8777;SDS011;4425;50.872;4.712;2023-01-09T09:48:29;1.37;;;1.10;;
8777;SDS011;4425;50.872;4.712;2023-01-09T09:54:18;1.37;;;1.27;;
8777;SDS011;4425;50.872;4.712;2023-01-09T09:56:51;1.53;;;1.00;;
8777;SDS011;4425;50.872;4.712;2023-01-09T09:59:30;1.80;;;1.10;;
8777;SDS011;4425;50.872;4.712;2023-01-09T10:02:03;2.97;;;1.10;;
8777;SDS011;4425;50.872;4.712;2023-01-09T10:04:53;2.03;;;1.20;;
8777;SDS011;4425;50.872;4.712;2023-01-09T10:07:31;2.33;;;1.23;;
8777;SDS011;4425;50.872;4.712;2023-01-09T10:10:18;3.87;;;1.10;;
8777;SDS011;4425;50.872;4.712;2023-01-09T10:12:54;1.73;;;1.23;;
8777;SDS011;4425;50.872;4.712;2023-01-09T10:15:27;2.20;;;1.20;;
8777;SDS011;4425;50.872;4.712;2023-01-09T10:18:08;1.20;;;1.10;;
8777;SDS011;4425;50.872;4.712;2023-01-09T10:21:03;2.60;;;1.47;;
8777;SDS011;4425;50.872;4.712;2023-01-09T10:23:56;1.50;;;1.30;;
8777;SDS011;4425;50.872;4.712;2023-01-09T10:26:38;1.67;;;1.57;;
8777;SDS011;4425;50.872;4.712;2023-01-09T10:29:11;8.13;;;2.10;;
8777;SDS011;4425;50.872;4.712;2023-01-09T10:31:59;1.20;;;1.10;;
8777;SDS011;4425;50.872;4.712;2023-01-09T10:34:49;2.00;;;1.10;;
8777;SDS011;4425;50.872;4.712;2023-01-09T10:37:30;2.73;;;1.50;;
8777;SDS011;4425;50.872;4.712;2023-01-09T10:40:02;2.50;;;1.57;;
8777;SDS011;4425;50.872;4.712;2023-01-09T10:42:40;4.00;;;1.30;;
8777;SDS011;4425;50.872;4.712;2023-01-09T10:45:14;2.67;;;1.37;;
8777;SDS011;4425;50.872;4.712;2023-01-09T10:47:45;1.87;;;1.20;;
8777;SDS011;4425;50.872;4.712;2023-01-09T10:50:18;1.70;;;1.13;;
8777;SDS011;4425;50.872;4.712;2023-01-09T10:52:49;1.60;;;1.43;;
8777;SDS011;4425;50.872;4.712;2023-01-09T10:55:18;2.83;;;1.50;;
8777;SDS011;4425;50.872;4.712;2023-01-09T10:57:56;3.10;;;1.33;;
8777;SDS011;4425;50.872;4.712;2023-01-09T11:00:28;1.80;;;1.20;;
8777;SDS011;4425;50.872;4.712;2023-01-09T11:02:56;1.53;;;1.30;;
8777;SDS011;4425;50.872;4.712;2023-01-09T11:05:25;2.47;;;1.30;;
8777;SDS011;4425;50.872;4.712;2023-01-09T11:07:56;3.87;;;1.27;;
8777;SDS011;4425;50.872;4.712;2023-01-09T11:10:43;3.27;;;1.30;;
8777;SDS011;4425;50.872;4.712;2023-01-09T11:13:13;1.87;;;1.40;;
8777;SDS011;4425;50.872;4.712;2023-01-09T11:15:45;1.73;;;1.27;;
8777;SDS011;4425;50.872;4.712;2023-01-09T11:18:23;1.60;;;1.50;;
8777;SDS011;4425;50.872;4.712;2023-01-09T11:20:51;1.70;;;1.30;;
8777;SDS011;4425;50.872;4.712;2023-01-09T11:23:25;2.60;;;1.70;;
8777;SDS011;4425;50.872;4.712;2023-01-09T11:25:55;2.50;;;1.30;;
8777;SDS011;4425;50.872;4.712;2023-01-09T11:28:25;2.73;;;1.50;;
8777;SDS011;4425;50.872;4.712;2023-01-09T11:30:54;1.83;;;1.60;;
8777;SDS011;4425;50.872;4.712;2023-01-09T11:33:27;3.20;;;1.43;;
8777;SDS011;4425;50.872;4.712;2023-01-09T11:35:58;2.90;;;1.70;;
8777;SDS011;4425;50.872;4.712;2023-01-09T11:38:30;2.77;;;1.67;;
8777;SDS011;4425;50.872;4.712;2023-01-09T11:40:58;2.40;;;1.57;;
8777;SDS011;4425;50.872;4.712;2023-01-09T11:43:28;3.03;;;1.70;;
8777;SDS011;4425;50.872;4.712;2023-01-09T11:45:58;1.77;;;1.47;;
8777;SDS011;4425;50.872;4.712;2023-01-09T11:48:36;7.07;;;1.90;;
8777;SDS011;4425;50.872;4.712;2023-01-09T11:51:14;1.50;;;1.40;;
8777;SDS011;4425;50.872;4.712;2023-01-09T11:53:54;5.20;;;1.77;;
8777;SDS011;4425;50.872;4.712;2023-01-09T11:56:38;2.80;;;1.60;;
8777;SDS011;4425;50.872;4.712;2023-01-09T11:59:07;3.53;;;1.80;;
8777;SDS011;4425;50.872;4.712;2023-01-09T12:01:42;6.47;;;1.70;;
8777;SDS011;4425;50.872;4.712;2023-01-09T12:04:31;3.77;;;1.83;;
8777;SDS011;4425;50.872;4.712;2023-01-09T12:07:24;5.50;;;2.10;;
8777;SDS011;4425;50.872;4.712;2023-01-09T12:10:14;4.93;;;2.00;;
8777;SDS011;4425;50.872;4.712;2023-01-09T12:12:56;6.43;;;1.97;;
8777;SDS011;4425;50.872;4.712;2023-01-09T12:15:29;4.00;;;1.93;;
8777;SDS011;4425;50.872;4.712;2023-01-09T12:18:11;2.00;;;1.70;;
8777;SDS011;4425;50.872;4.712;2023-01-09T12:20:57;6.27;;;1.73;;
8777;SDS011;4425;50.872;4.712;2023-01-09T12:23:42;4.60;;;1.73;;
8777;SDS011;4425;50.872;4.712;2023-01-09T12:26:30;3.23;;;1.60;;
8777;SDS011;4425;50.872;4.712;2023-01-09T12:29:09;3.13;;;1.80;;
8777;SDS011;4425;50.872;4.712;2023-01-09T12:32:05;4.33;;;1.97;;
8777;SDS011;4425;50.872;4.712;2023-01-09T12:34:51;2.40;;;1.60;;
8777;SDS011;4425;50.872;4.712;2023-01-09T12:41:05;3.37;;;2.00;;
8777;SDS011;4425;50.872;4.712;2023-01-09T12:43:51;4.83;;;2.00;;
8777;SDS011;4425;50.872;4.712;2023-01-09T12:46:36;4.43;;;2.10;;
8777;SDS011;4425;50.872;4.712;2023-01-09T12:52:01;4.40;;;1.90;;
8777;SDS011;4425;50.872;4.712;2023-01-09T12:54:36;4.83;;;2.07;;
8777;SDS011;4425;50.872;4.712;2023-01-09T12:57:10;4.60;;;2.57;;
8777;SDS011;4425;50.872;4.712;2023-01-09T12:59:42;4.97;;;2.17;;
8777;SDS011;4425;50.872;4.712;2023-01-09T13:02:19;5.10;;;2.03;;
8777;SDS011;4425;50.872;4.712;2023-01-09T13:04:54;5.37;;;1.93;;
8777;SDS011;4425;50.872;4.712;2023-01-09T13:07:25;7.87;;;2.33;;
8777;SDS011;4425;50.872;4.712;2023-01-09T13:09:55;6.93;;;2.57;;
8777;SDS011;4425;50.872;4.712;2023-01-09T13:12:28;5.60;;;2.27;;
8777;SDS011;4425;50.872;4.712;2023-01-09T13:15:03;7.60;;;2.70;;
8777;SDS011;4425;50.872;4.712;2023-01-09T13:17:41;7.00;;;2.57;;
8777;SDS011;4425;50.872;4.712;2023-01-09T13:20:16;4.40;;;2.20;;
8777;SDS011;4425;50.872;4.712;2023-01-09T13:22:46;4.70;;;2.30;;
8777;SDS011;4425;50.872;4.712;2023-01-09T13:28:06;7.73;;;2.80;;
8777;SDS011;4425;50.872;4.712;2023-01-09T13:33:48;6.90;;;2.47;;
8777;SDS011;4425;50.872;4.712;2023-01-09T13:36:20;5.60;;;2.43;;
8777;SDS011;4425;50.872;4.712;2023-01-09T13:38:50;4.53;;;2.03;;
8777;SDS011;4425;50.872;4.712;2023-01-09T13:41:20;9.37;;;2.70;;
8777;SDS011;4425;50.872;4.712;2023-01-09T13:44:05;6.93;;;2.53;;
8777;SDS011;4425;50.872;4.712;2023-01-09T13:46:49;6.30;;;2.67;;
8777;SDS011;4425;50.872;4.712;2023-01-09T13:49:30;8.30;;;2.80;;
8777;SDS011;4425;50.872;4.712;2023-01-09T14:01:01;8.60;;;2.47;;
8777;SDS011;4425;50.872;4.712;2023-01-09T14:03:33;6.47;;;2.63;;
8777;SDS011;4425;50.872;4.712;2023-01-09T14:06:14;5.40;;;2.73;;
8777;SDS011;4425;50.872;4.712;2023-01-09T14:08:46;9.50;;;3.00;;
8777;SDS011;4425;50.872;4.712;2023-01-09T14:11:22;6.83;;;2.63;;
8777;SDS011;4425;50.872;4.712;2023-01-09T14:14:01;8.73;;;2.73;;
8777;SDS011;4425;50.872;4.712;2023-01-09T14:16:31;9.90;;;3.30;;
8777;SDS011;4425;50.872;4.712;2023-01-09T14:19:03;8.13;;;2.97;;
8777;SDS011;4425;50.872;4.712;2023-01-09T14:21:48;6.50;;;2.67;;
8777;SDS011;4425;50.872;4.712;2023-01-09T14:24:24;8.43;;;2.40;;
8777;SDS011;4425;50.872;4.712;2023-01-09T14:26:54;9.43;;;3.00;;
8777;SDS011;4425;50.872;4.712;2023-01-09T14:29:37;9.30;;;3.20;;
8777;SDS011;4425;50.872;4.712;2023-01-09T14:35:24;10.13;;;2.87;;
8777;SDS011;4425;50.872;4.712;2023-01-09T14:38:02;9.07;;;3.30;;
8777;SDS011;4425;50.872;4.712;2023-01-09T14:40:38;6.83;;;3.03;;
8777;SDS011;4425;50.872;4.712;2023-01-09T14:43:22;8.27;;;3.13;;
8777;SDS011;4425;50.872;4.712;2023-01-09T14:45:53;7.03;;;2.67;;
8777;SDS011;4425;50.872;4.712;2023-01-09T14:48:28;8.60;;;3.07;;
8777;SDS011;4425;50.872;4.712;2023-01-09T14:50:57;9.33;;;3.00;;
8777;SDS011;4425;50.872;4.712;2023-01-09T14:53:27;9.50;;;2.97;;
8777;SDS011;4425;50.872;4.712;2023-01-09T14:55:58;5.13;;;2.77;;
8777;SDS011;4425;50.872;4.712;2023-01-09T14:58:26;9.53;;;2.90;;
8777;SDS011;4425;50.872;4.712;2023-01-09T15:00:56;12.17;;;3.03;;
8777;SDS011;4425;50.872;4.712;2023-01-09T15:03:28;7.23;;;3.10;;
8777;SDS011;4425;50.872;4.712;2023-01-09T15:05:58;9.33;;;3.17;;
8777;SDS011;4425;50.872;4.712;2023-01-09T15:08:28;7.97;;;2.63;;
8777;SDS011;4425;50.872;4.712;2023-01-09T15:10:57;13.27;;;3.67;;
8777;SDS011;4425;50.872;4.712;2023-01-09T15:13:30;5.60;;;3.00;;
8777;SDS011;4425;50.872;4.712;2023-01-09T15:16:02;9.93;;;3.23;;
8777;SDS011;4425;50.872;4.712;2023-01-09T15:18:31;9.97;;;3.30;;
8777;SDS011;4425;50.872;4.712;2023-01-09T15:21:10;6.43;;;2.67;;
8777;SDS011;4425;50.872;4.712;2023-01-09T15:23:47;9.87;;;2.97;;
8777;SDS011;4425;50.872;4.712;2023-01-09T15:26:22;9.87;;;2.90;;
8777;SDS011;4425;50.872;4.712;2023-01-09T15:28:51;9.53;;;2.93;;
8777;SDS011;4425;50.872;4.712;2023-01-09T15:31:21;6.23;;;2.87;;
8777;SDS011;4425;50.872;4.712;2023-01-09T15:33:49;8.73;;;2.80;;
8777;SDS011;4425;50.872;4.712;2023-01-09T15:36:18;12.23;;;3.20;;
8777;SDS011;4425;50.872;4.712;2023-01-09T15:38:50;7.33;;;2.67;;
8777;SDS011;4425;50.872;4.712;2023-01-09T15:41:18;6.30;;;2.40;;
8777;SDS011;4425;50.872;4.712;2023-01-09T15:44:11;4.60;;;2.23;;
8777;SDS011;4425;50.872;4.712;2023-01-09T15:46:42;9.73;;;2.50;;
8777;SDS011;4425;50.872;4.712;2023-01-09T15:49:16;5.07;;;2.50;;
8777;SDS011;4425;50.872;4.712;2023-01-09T15:51:44;6.13;;;2.20;;
8777;SDS011;4425;50.872;4.712;2023-01-09T15:54:14;7.80;;;2.70;;
8777;SDS011;4425;50.872;4.712;2023-01-09T15:56:43;4.57;;;2.20;;
8777;SDS011;4425;50.872;4.712;2023-01-09T15:59:20;6.00;;;2.50;;
8777;SDS011;4425;50.872;4.712;2023-01-09T16:01:53;5.63;;;2.33;;
8777;SDS011;4425;50.872;4.712;2023-01-09T16:04:45;3.00;;;1.90;;
8777;SDS011;4425;50.872;4.712;2023-01-09T16:07:14;5.33;;;2.90;;
8777;SDS011;4425;50.872;4.712;2023-01-09T16:09:48;8.17;;;2.30;;
8777;SDS011;4425;50.872;4.712;2023-01-09T16:12:17;5.27;;;2.33;;
8777;SDS011;4425;50.872;4.712;2023-01-09T16:14:49;7.23;;;2.23;;
8777;SDS011;4425;50.872;4.712;2023-01-09T16:17:19;4.50;;;2.40;;
8777;SDS011;4425;50.872;4.712;2023-01-09T16:19:51;3.67;;;1.80;;
8777;SDS011;4425;50.872;4.712;2023-01-09T16:22:20;6.77;;;2.50;;
8777;SDS011;4425;50.872;4.712;2023-01-09T16:24:53;4.87;;;2.33;;
8777;SDS011;4425;50.872;4.712;2023-01-09T16:27:22;5.13;;;2.20;;